sensor_id;sensor_type;location;lat;lon;timestamp;P1;durP1;ratioP1;P2;durP2;ratioP2
73571;SDS011;61854;48.510;-2.770;2022-08-19T00:00:06;1.73;;;0.88;;
73571;SDS011;61854;48.510;-2.770;2022-08-19T00:02:33;1.48;;;1.00;;
73571;SDS011;61854;48.510;-2.770;2022-08-19T00:04:59;1.75;;;1.10;;
73571;SDS011;61854;48.510;-2.770;2022-08-19T00:07:25;2.38;;;0.93;;
73571;SDS011;61854;48.510;-2.770;2022-08-19T00:09:51;2.00;;;1.00;;
73571;SDS011;61854;48.510;-2.770;2022-08-19T00:12:17;1.75;;;1.00;;
73571;SDS011;61854;48.510;-2.770;2022-08-19T00:14:43;2.50;;;1.05;;
73571;SDS011;61854;48.510;-2.770;2022-08-19T00:17:09;2.20;;;1.00;;
73571;SDS011;61854;48.510;-2.770;2022-08-19T00:19:36;2.22;;;1.23;;
73571;SDS011;61854;48.510;-2.770;2022-08-19T00:22:02;2.38;;;1.13;;
73571;SDS011;61854;48.510;-2.770;2022-08-19T00:24:28;3.33;;;1.33;;
73571;SDS011;61854;48.510;-2.770;2022-08-19T00:26:55;2.60;;;1.40;;
73571;SDS011;61854;48.510;-2.770;2022-08-19T00:29:22;2.22;;;1.48;;
73571;SDS011;61854;48.510;-2.770;2022-08-19T00:31:49;2.10;;;1.40;;
73571;SDS011;61854;48.510;-2.770;2022-08-19T00:34:18;2.50;;;1.38;;
73571;SDS011;61854;48.510;-2.770;2022-08-19T00:36:44;2.35;;;1.40;;
73571;SDS011;61854;48.510;-2.770;2022-08-19T00:39:11;2.95;;;1.50;;
73571;SDS011;61854;48.510;-2.770;2022-08-19T00:41:37;3.72;;;1.17;;
73571;SDS011;61854;48.510;-2.770;2022-08-19T00:46:30;2.88;;;1.00;;
73571;SDS011;61854;48.510;-2.770;2022-08-19T00:48:58;2.30;;;0.95;;
73571;SDS011;61854;48.510;-2.770;2022-08-19T00:51:26;3.92;;;1.00;;
73571;SDS011;61854;48.510;-2.770;2022-08-19T00:53:53;1.90;;;1.00;;
73571;SDS011;61854;48.510;-2.770;2022-08-19T00:56:20;1.63;;;1.10;;
73571;SDS011;61854;48.510;-2.770;2022-08-19T00:58:46;2.05;;;0.90;;
73571;SDS011;61854;48.510;-2.770;2022-08-19T01:01:13;2.20;;;1.10;;
73571;SDS011;61854;48.510;-2.770;2022-08-19T01:03:39;4.80;;;1.35;;
73571;SDS011;61854;48.510;-2.770;2022-08-19T01:06:05;2.40;;;1.10;;
73571;SDS011;61854;48.510;-2.770;2022-08-19T01:08:31;4.22;;;1.20;;
73571;SDS011;61854;48.510;-2.770;2022-08-19T01:10:58;1.75;;;1.00;;
73571;SDS011;61854;48.510;-2.770;2022-08-19T01:13:27;2.55;;;1.17;;
73571;SDS011;61854;48.510;-2.770;2022-08-19T01:15:55;2.78;;;1.13;;
73571;SDS011;61854;48.510;-2.770;2022-08-19T01:20:48;3.88;;;1.10;;
73571;SDS011;61854;48.510;-2.770;2022-08-19T01:23:14;2.50;;;1.48;;
73571;SDS011;61854;48.510;-2.770;2022-08-19T01:28:06;3.05;;;1.35;;
73571;SDS011;61854;48.510;-2.770;2022-08-19T01:30:33;2.95;;;1.48;;
73571;SDS011;61854;48.510;-2.770;2022-08-19T01:33:00;2.67;;;1.33;;
73571;SDS011;61854;48.510;-2.770;2022-08-19T01:35:27;2.42;;;1.27;;
73571;SDS011;61854;48.510;-2.770;2022-08-19T01:38:05;2.65;;;1.50;;
73571;SDS011;61854;48.510;-2.770;2022-08-19T01:40:33;2.30;;;1.50;;
73571;SDS011;61854;48.510;-2.770;2022-08-19T01:43:00;3.35;;;1.58;;
73571;SDS011;61854;48.510;-2.770;2022-08-19T01:45:27;5.10;;;1.70;;
73571;SDS011;61854;48.510;-2.770;2022-08-19T01:47:53;2.38;;;1.60;;
73571;SDS011;61854;48.510;-2.770;2022-08-19T01:50:19;3.58;;;1.45;;
73571;SDS011;61854;48.510;-2.770;2022-08-19T01:52:46;4.93;;;1.60;;
73571;SDS011;61854;48.510;-2.770;2022-08-19T01:55:13;2.88;;;1.50;;
73571;SDS011;61854;48.510;-2.770;2022-08-19T01:57:41;2.67;;;1.33;;
73571;SDS011;61854;48.510;-2.770;2022-08-19T02:00:10;2.17;;;1.20;;
73571;SDS011;61854;48.510;-2.770;2022-08-19T02:02:36;3.03;;;1.67;;
73571;SDS011;61854;48.510;-2.770;2022-08-19T02:05:03;2.67;;;1.58;;
73571;SDS011;61854;48.510;-2.770;2022-08-19T02:07:32;3.53;;;1.70;;
73571;SDS011;61854;48.510;-2.770;2022-08-19T02:09:58;3.38;;;1.70;;
73571;SDS011;61854;48.510;-2.770;2022-08-19T02:12:24;6.18;;;1.58;;
73571;SDS011;61854;48.510;-2.770;2022-08-19T02:14:50;4.88;;;1.90;;
73571;SDS011;61854;48.510;-2.770;2022-08-19T02:17:16;4.13;;;1.70;;
73571;SDS011;61854;48.510;-2.770;2022-08-19T02:19:43;3.58;;;2.10;;
73571;SDS011;61854;48.510;-2.770;2022-08-19T02:22:09;3.72;;;1.83;;
73571;SDS011;61854;48.510;-2.770;2022-08-19T02:24:35;2.70;;;1.77;;
73571;SDS011;61854;48.510;-2.770;2022-08-19T02:27:01;3.45;;;2.20;;
73571;SDS011;61854;48.510;-2.770;2022-08-19T02:29:27;2.50;;;1.75;;
73571;SDS011;61854;48.510;-2.770;2022-08-19T02:31:56;4.22;;;1.83;;
73571;SDS011;61854;48.510;-2.770;2022-08-19T02:34:23;2.65;;;1.90;;
73571;SDS011;61854;48.510;-2.770;2022-08-19T02:36:50;3.72;;;1.88;;
73571;SDS011;61854;48.510;-2.770;2022-08-19T02:39:16;3.45;;;2.00;;
73571;SDS011;61854;48.510;-2.770;2022-08-19T02:41:42;4.20;;;1.98;;
73571;SDS011;61854;48.510;-2.770;2022-08-19T02:44:09;3.15;;;2.15;;
73571;SDS011;61854;48.510;-2.770;2022-08-19T02:46:35;4.95;;;2.25;;
73571;SDS011;61854;48.510;-2.770;2022-08-19T02:49:03;4.88;;;2.05;;
73571;SDS011;61854;48.510;-2.770;2022-08-19T02:51:34;3.90;;;2.10;;
73571;SDS011;61854;48.510;-2.770;2022-08-19T02:54:01;4.63;;;2.20;;
73571;SDS011;61854;48.510;-2.770;2022-08-19T02:56:27;4.40;;;2.10;;
73571;SDS011;61854;48.510;-2.770;2022-08-19T02:58:54;3.72;;;1.98;;
73571;SDS011;61854;48.510;-2.770;2022-08-19T03:01:24;3.55;;;1.80;;
73571;SDS011;61854;48.510;-2.770;2022-08-19T03:03:51;3.65;;;2.10;;
73571;SDS011;61854;48.510;-2.770;2022-08-19T03:06:18;3.85;;;2.10;;
73571;SDS011;61854;48.510;-2.770;2022-08-19T03:08:45;4.38;;;2.28;;
73571;SDS011;61854;48.510;-2.770;2022-08-19T03:11:12;4.90;;;2.03;;
73571;SDS011;61854;48.510;-2.770;2022-08-19T03:13:39;4.13;;;2.37;;
73571;SDS011;61854;48.510;-2.770;2022-08-19T03:16:05;4.07;;;2.20;;
73571;SDS011;61854;48.510;-2.770;2022-08-19T03:18:31;5.78;;;2.05;;
73571;SDS011;61854;48.510;-2.770;2022-08-19T03:20:57;5.90;;;2.30;;
73571;SDS011;61854;48.510;-2.770;2022-08-19T03:23:23;4.05;;;2.10;;
73571;SDS011;61854;48.510;-2.770;2022-08-19T03:25:50;6.75;;;2.00;;
73571;SDS011;61854;48.510;-2.770;2022-08-19T03:28:17;5.80;;;2.10;;
73571;SDS011;61854;48.510;-2.770;2022-08-19T03:30:54;5.30;;;2.20;;
73571;SDS011;61854;48.510;-2.770;2022-08-19T03:33:21;5.77;;;2.40;;
73571;SDS011;61854;48.510;-2.770;2022-08-19T03:35:58;6.63;;;2.60;;
73571;SDS011;61854;48.510;-2.770;2022-08-19T03:38:27;4.85;;;2.13;;
73571;SDS011;61854;48.510;-2.770;2022-08-19T03:40:54;6.00;;;2.40;;
73571;SDS011;61854;48.510;-2.770;2022-08-19T03:43:20;6.30;;;2.50;;
73571;SDS011;61854;48.510;-2.770;2022-08-19T03:45:46;6.95;;;2.40;;
73571;SDS011;61854;48.510;-2.770;2022-08-19T03:48:13;6.30;;;2.63;;
73571;SDS011;61854;48.510;-2.770;2022-08-19T03:50:41;8.23;;;2.70;;
73571;SDS011;61854;48.510;-2.770;2022-08-19T03:53:07;5.68;;;2.08;;
73571;SDS011;61854;48.510;-2.770;2022-08-19T03:55:39;6.63;;;2.28;;
73571;SDS011;61854;48.510;-2.770;2022-08-19T03:58:05;5.47;;;2.35;;
73571;SDS011;61854;48.510;-2.770;2022-08-19T04:00:31;6.55;;;2.58;;
73571;SDS011;61854;48.510;-2.770;2022-08-19T04:02:58;5.90;;;2.60;;
73571;SDS011;61854;48.510;-2.770;2022-08-19T04:05:26;5.97;;;2.35;;
73571;SDS011;61854;48.510;-2.770;2022-08-19T04:07:53;6.25;;;2.60;;
73571;SDS011;61854;48.510;-2.770;2022-08-19T04:10:21;7.43;;;2.60;;
73571;SDS011;61854;48.510;-2.770;2022-08-19T04:12:49;7.93;;;2.95;;
73571;SDS011;61854;48.510;-2.770;2022-08-19T04:15:15;7.28;;;2.88;;
73571;SDS011;61854;48.510;-2.770;2022-08-19T04:17:41;9.35;;;2.60;;
73571;SDS011;61854;48.510;-2.770;2022-08-19T04:20:07;7.40;;;2.55;;
73571;SDS011;61854;48.510;-2.770;2022-08-19T04:22:33;8.02;;;2.53;;
73571;SDS011;61854;48.510;-2.770;2022-08-19T04:24:59;7.72;;;2.70;;
73571;SDS011;61854;48.510;-2.770;2022-08-19T04:27:25;9.30;;;3.20;;
73571;SDS011;61854;48.510;-2.770;2022-08-19T04:29:51;8.93;;;3.13;;
73571;SDS011;61854;48.510;-2.770;2022-08-19T04:32:18;8.65;;;3.00;;
73571;SDS011;61854;48.510;-2.770;2022-08-19T04:34:44;10.82;;;3.17;;
73571;SDS011;61854;48.510;-2.770;2022-08-19T04:37:10;10.50;;;3.38;;
73571;SDS011;61854;48.510;-2.770;2022-08-19T04:39:38;8.38;;;3.20;;
73571;SDS011;61854;48.510;-2.770;2022-08-19T04:42:23;10.20;;;3.08;;
73571;SDS011;61854;48.510;-2.770;2022-08-19T04:45:09;9.30;;;2.92;;
73571;SDS011;61854;48.510;-2.770;2022-08-19T04:47:36;8.65;;;3.00;;
73571;SDS011;61854;48.510;-2.770;2022-08-19T04:50:03;11.05;;;3.65;;
73571;SDS011;61854;48.510;-2.770;2022-08-19T04:52:29;10.07;;;3.28;;
73571;SDS011;61854;48.510;-2.770;2022-08-19T04:54:57;8.35;;;2.80;;
73571;SDS011;61854;48.510;-2.770;2022-08-19T04:57:23;9.35;;;3.10;;
73571;SDS011;61854;48.510;-2.770;2022-08-19T04:59:53;10.10;;;3.20;;
73571;SDS011;61854;48.510;-2.770;2022-08-19T05:02:20;10.82;;;3.17;;
73571;SDS011;61854;48.510;-2.770;2022-08-19T05:04:50;9.00;;;3.28;;
73571;SDS011;61854;48.510;-2.770;2022-08-19T05:07:16;11.93;;;3.38;;
73571;SDS011;61854;48.510;-2.770;2022-08-19T05:09:42;10.15;;;3.28;;
73571;SDS011;61854;48.510;-2.770;2022-08-19T05:12:08;11.57;;;3.22;;
73571;SDS011;61854;48.510;-2.770;2022-08-19T05:14:34;11.75;;;3.03;;
73571;SDS011;61854;48.510;-2.770;2022-08-19T05:17:01;12.00;;;2.90;;
73571;SDS011;61854;48.510;-2.770;2022-08-19T05:19:27;11.52;;;2.85;;
73571;SDS011;61854;48.510;-2.770;2022-08-19T05:22:12;10.77;;;2.83;;
73571;SDS011;61854;48.510;-2.770;2022-08-19T05:24:56;7.72;;;2.65;;
73571;SDS011;61854;48.510;-2.770;2022-08-19T05:27:22;10.70;;;3.00;;
73571;SDS011;61854;48.510;-2.770;2022-08-19T05:29:49;11.90;;;3.13;;
73571;SDS011;61854;48.510;-2.770;2022-08-19T05:32:15;10.95;;;3.20;;
73571;SDS011;61854;48.510;-2.770;2022-08-19T05:34:41;10.65;;;3.00;;
73571;SDS011;61854;48.510;-2.770;2022-08-19T05:37:07;9.90;;;3.25;;
73571;SDS011;61854;48.510;-2.770;2022-08-19T05:39:34;8.95;;;3.20;;
73571;SDS011;61854;48.510;-2.770;2022-08-19T05:42:02;9.85;;;2.67;;
73571;SDS011;61854;48.510;-2.770;2022-08-19T05:44:31;11.70;;;3.00;;
73571;SDS011;61854;48.510;-2.770;2022-08-19T05:46:58;13.90;;;3.15;;
73571;SDS011;61854;48.510;-2.770;2022-08-19T05:49:24;9.35;;;3.05;;
73571;SDS011;61854;48.510;-2.770;2022-08-19T05:51:52;14.20;;;3.50;;
73571;SDS011;61854;48.510;-2.770;2022-08-19T05:54:18;11.00;;;2.75;;
73571;SDS011;61854;48.510;-2.770;2022-08-19T05:56:45;8.43;;;2.53;;
73571;SDS011;61854;48.510;-2.770;2022-08-19T05:59:12;14.43;;;3.27;;
73571;SDS011;61854;48.510;-2.770;2022-08-19T06:01:42;11.98;;;3.00;;
73571;SDS011;61854;48.510;-2.770;2022-08-19T06:04:08;14.35;;;3.22;;
73571;SDS011;61854;48.510;-2.770;2022-08-19T06:06:35;9.05;;;2.53;;
73571;SDS011;61854;48.510;-2.770;2022-08-19T06:09:04;10.73;;;2.70;;
73571;SDS011;61854;48.510;-2.770;2022-08-19T06:11:33;7.82;;;2.53;;
73571;SDS011;61854;48.510;-2.770;2022-08-19T06:14:00;12.25;;;2.97;;
73571;SDS011;61854;48.510;-2.770;2022-08-19T06:16:26;10.70;;;2.90;;
73571;SDS011;61854;48.510;-2.770;2022-08-19T06:18:53;16.08;;;2.92;;
73571;SDS011;61854;48.510;-2.770;2022-08-19T06:21:20;14.00;;;3.05;;
73571;SDS011;61854;48.510;-2.770;2022-08-19T06:23:46;14.02;;;2.65;;
73571;SDS011;61854;48.510;-2.770;2022-08-19T06:26:14;14.57;;;2.97;;
73571;SDS011;61854;48.510;-2.770;2022-08-19T06:28:40;12.50;;;3.03;;
73571;SDS011;61854;48.510;-2.770;2022-08-19T06:31:11;11.77;;;2.95;;
73571;SDS011;61854;48.510;-2.770;2022-08-19T06:33:38;9.80;;;2.80;;
73571;SDS011;61854;48.510;-2.770;2022-08-19T06:36:05;12.52;;;3.03;;
73571;SDS011;61854;48.510;-2.770;2022-08-19T06:38:31;9.57;;;2.75;;
73571;SDS011;61854;48.510;-2.770;2022-08-19T06:41:04;12.45;;;3.03;;
73571;SDS011;61854;48.510;-2.770;2022-08-19T06:43:31;13.55;;;2.90;;
73571;SDS011;61854;48.510;-2.770;2022-08-19T06:45:57;11.50;;;2.67;;
73571;SDS011;61854;48.510;-2.770;2022-08-19T06:48:24;10.88;;;2.55;;
73571;SDS011;61854;48.510;-2.770;2022-08-19T06:50:50;12.98;;;2.75;;
73571;SDS011;61854;48.510;-2.770;2022-08-19T06:53:16;13.75;;;2.53;;
73571;SDS011;61854;48.510;-2.770;2022-08-19T06:55:44;10.40;;;2.45;;
73571;SDS011;61854;48.510;-2.770;2022-08-19T06:58:10;10.85;;;2.28;;
73571;SDS011;61854;48.510;-2.770;2022-08-19T07:00:36;7.70;;;1.80;;
73571;SDS011;61854;48.510;-2.770;2022-08-19T07:03:02;10.32;;;2.10;;
73571;SDS011;61854;48.510;-2.770;2022-08-19T07:05:28;7.90;;;1.80;;
73571;SDS011;61854;48.510;-2.770;2022-08-19T07:07:54;8.70;;;1.90;;
73571;SDS011;61854;48.510;-2.770;2022-08-19T07:10:21;9.27;;;1.95;;
73571;SDS011;61854;48.510;-2.770;2022-08-19T07:12:47;9.77;;;1.95;;
73571;SDS011;61854;48.510;-2.770;2022-08-19T07:15:15;9.80;;;2.08;;
73571;SDS011;61854;48.510;-2.770;2022-08-19T07:17:41;8.98;;;2.00;;
73571;SDS011;61854;48.510;-2.770;2022-08-19T07:20:09;9.40;;;2.00;;
73571;SDS011;61854;48.510;-2.770;2022-08-19T07:22:36;8.30;;;1.92;;
73571;SDS011;61854;48.510;-2.770;2022-08-19T07:25:03;13.82;;;2.17;;
73571;SDS011;61854;48.510;-2.770;2022-08-19T07:27:29;11.75;;;1.98;;
73571;SDS011;61854;48.510;-2.770;2022-08-19T07:29:56;8.35;;;1.80;;
73571;SDS011;61854;48.510;-2.770;2022-08-19T07:32:22;7.25;;;1.83;;
73571;SDS011;61854;48.510;-2.770;2022-08-19T07:34:48;5.75;;;1.38;;
73571;SDS011;61854;48.510;-2.770;2022-08-19T07:37:14;8.70;;;1.83;;
73571;SDS011;61854;48.510;-2.770;2022-08-19T07:39:40;9.23;;;1.90;;
73571;SDS011;61854;48.510;-2.770;2022-08-19T07:42:07;9.15;;;1.67;;
73571;SDS011;61854;48.510;-2.770;2022-08-19T07:44:35;8.80;;;1.90;;
73571;SDS011;61854;48.510;-2.770;2022-08-19T07:47:02;6.47;;;1.70;;
73571;SDS011;61854;48.510;-2.770;2022-08-19T07:49:29;7.53;;;1.75;;
73571;SDS011;61854;48.510;-2.770;2022-08-19T07:51:59;8.68;;;1.85;;
73571;SDS011;61854;48.510;-2.770;2022-08-19T07:54:27;8.18;;;1.83;;
73571;SDS011;61854;48.510;-2.770;2022-08-19T07:56:53;8.67;;;1.47;;
73571;SDS011;61854;48.510;-2.770;2022-08-19T07:59:20;6.32;;;1.65;;
73571;SDS011;61854;48.510;-2.770;2022-08-19T08:01:47;7.45;;;1.73;;
73571;SDS011;61854;48.510;-2.770;2022-08-19T08:06:59;7.28;;;1.52;;
73571;SDS011;61854;48.510;-2.770;2022-08-19T08:09:44;7.72;;;1.92;;
73571;SDS011;61854;48.510;-2.770;2022-08-19T08:12:15;10.65;;;1.77;;
73571;SDS011;61854;48.510;-2.770;2022-08-19T08:14:43;7.65;;;1.67;;
73571;SDS011;61854;48.510;-2.770;2022-08-19T08:17:11;7.32;;;1.50;;
73571;SDS011;61854;48.510;-2.770;2022-08-19T08:19:37;10.63;;;1.60;;
73571;SDS011;61854;48.510;-2.770;2022-08-19T08:22:05;6.95;;;1.65;;
73571;SDS011;61854;48.510;-2.770;2022-08-19T08:24:32;8.02;;;1.75;;
73571;SDS011;61854;48.510;-2.770;2022-08-19T08:26:59;6.03;;;1.42;;
73571;SDS011;61854;48.510;-2.770;2022-08-19T08:29:26;14.02;;;1.65;;
73571;SDS011;61854;48.510;-2.770;2022-08-19T08:31:52;10.32;;;1.80;;
73571;SDS011;61854;48.510;-2.770;2022-08-19T08:34:19;8.30;;;1.77;;
73571;SDS011;61854;48.510;-2.770;2022-08-19T08:36:45;7.57;;;1.63;;
73571;SDS011;61854;48.510;-2.770;2022-08-19T08:39:13;8.23;;;1.52;;
73571;SDS011;61854;48.510;-2.770;2022-08-19T08:41:43;5.68;;;1.48;;
73571;SDS011;61854;48.510;-2.770;2022-08-19T08:44:17;7.13;;;1.40;;
73571;SDS011;61854;48.510;-2.770;2022-08-19T08:46:48;8.70;;;1.48;;
73571;SDS011;61854;48.510;-2.770;2022-08-19T08:49:20;7.65;;;1.33;;
73571;SDS011;61854;48.510;-2.770;2022-08-19T08:51:57;5.57;;;1.23;;
73571;SDS011;61854;48.510;-2.770;2022-08-19T08:54:27;7.78;;;1.30;;
73571;SDS011;61854;48.510;-2.770;2022-08-19T08:56:54;7.60;;;1.50;;
73571;SDS011;61854;48.510;-2.770;2022-08-19T08:59:29;3.25;;;1.00;;
73571;SDS011;61854;48.510;-2.770;2022-08-19T09:01:57;5.68;;;0.93;;
73571;SDS011;61854;48.510;-2.770;2022-08-19T09:04:23;5.60;;;1.40;;
73571;SDS011;61854;48.510;-2.770;2022-08-19T09:09:30;5.93;;;1.27;;
73571;SDS011;61854;48.510;-2.770;2022-08-19T09:14:55;4.57;;;1.00;;
73571;SDS011;61854;48.510;-2.770;2022-08-19T09:17:24;5.70;;;1.10;;
73571;SDS011;61854;48.510;-2.770;2022-08-19T09:19:57;4.07;;;1.02;;
73571;SDS011;61854;48.510;-2.770;2022-08-19T09:22:26;5.03;;;1.10;;
73571;SDS011;61854;48.510;-2.770;2022-08-19T09:24:53;5.00;;;1.20;;
73571;SDS011;61854;48.510;-2.770;2022-08-19T09:27:19;7.15;;;1.23;;
73571;SDS011;61854;48.510;-2.770;2022-08-19T09:29:46;8.98;;;1.75;;
73571;SDS011;61854;48.510;-2.770;2022-08-19T09:32:14;6.20;;;1.33;;
73571;SDS011;61854;48.510;-2.770;2022-08-19T09:34:40;6.60;;;1.50;;
73571;SDS011;61854;48.510;-2.770;2022-08-19T09:37:06;8.70;;;1.48;;
73571;SDS011;61854;48.510;-2.770;2022-08-19T09:39:33;6.10;;;1.55;;
73571;SDS011;61854;48.510;-2.770;2022-08-19T09:41:59;9.88;;;1.63;;
73571;SDS011;61854;48.510;-2.770;2022-08-19T09:44:25;7.10;;;1.38;;
73571;SDS011;61854;48.510;-2.770;2022-08-19T09:46:51;3.80;;;0.88;;
73571;SDS011;61854;48.510;-2.770;2022-08-19T09:49:17;6.75;;;1.30;;
73571;SDS011;61854;48.510;-2.770;2022-08-19T09:51:44;6.18;;;1.10;;
73571;SDS011;61854;48.510;-2.770;2022-08-19T09:54:10;5.53;;;1.00;;
73571;SDS011;61854;48.510;-2.770;2022-08-19T09:56:36;4.85;;;0.90;;
73571;SDS011;61854;48.510;-2.770;2022-08-19T09:59:02;3.03;;;0.70;;
73571;SDS011;61854;48.510;-2.770;2022-08-19T10:01:29;4.97;;;1.08;;
73571;SDS011;61854;48.510;-2.770;2022-08-19T10:03:57;4.68;;;1.00;;
73571;SDS011;61854;48.510;-2.770;2022-08-19T10:06:24;5.35;;;1.20;;
73571;SDS011;61854;48.510;-2.770;2022-08-19T10:08:51;5.60;;;0.90;;
73571;SDS011;61854;48.510;-2.770;2022-08-19T10:11:17;3.05;;;0.70;;
73571;SDS011;61854;48.510;-2.770;2022-08-19T10:13:44;2.35;;;0.70;;
73571;SDS011;61854;48.510;-2.770;2022-08-19T10:16:11;2.75;;;0.70;;
73571;SDS011;61854;48.510;-2.770;2022-08-19T10:18:43;3.40;;;0.80;;
73571;SDS011;61854;48.510;-2.770;2022-08-19T10:23:41;4.97;;;0.93;;
73571;SDS011;61854;48.510;-2.770;2022-08-19T10:26:13;8.13;;;0.90;;
73571;SDS011;61854;48.510;-2.770;2022-08-19T10:28:44;3.90;;;1.15;;
73571;SDS011;61854;48.510;-2.770;2022-08-19T10:31:12;4.55;;;1.00;;
73571;SDS011;61854;48.510;-2.770;2022-08-19T10:33:40;4.72;;;1.10;;
73571;SDS011;61854;48.510;-2.770;2022-08-19T10:36:11;3.50;;;0.90;;
73571;SDS011;61854;48.510;-2.770;2022-08-19T10:38:40;3.03;;;0.80;;
73571;SDS011;61854;48.510;-2.770;2022-08-19T10:41:07;3.05;;;0.70;;
73571;SDS011;61854;48.510;-2.770;2022-08-19T10:43:37;1.73;;;0.60;;
73571;SDS011;61854;48.510;-2.770;2022-08-19T10:46:05;3.88;;;0.60;;
73571;SDS011;61854;48.510;-2.770;2022-08-19T10:48:32;2.20;;;0.60;;
73571;SDS011;61854;48.510;-2.770;2022-08-19T10:50:58;1.58;;;0.50;;
73571;SDS011;61854;48.510;-2.770;2022-08-19T10:53:42;1.90;;;0.50;;
73571;SDS011;61854;48.510;-2.770;2022-08-19T10:56:08;4.72;;;0.70;;
73571;SDS011;61854;48.510;-2.770;2022-08-19T10:58:52;2.60;;;1.00;;
73571;SDS011;61854;48.510;-2.770;2022-08-19T11:01:18;3.55;;;0.60;;
73571;SDS011;61854;48.510;-2.770;2022-08-19T11:03:45;3.53;;;0.70;;
73571;SDS011;61854;48.510;-2.770;2022-08-19T11:06:11;2.60;;;0.57;;
73571;SDS011;61854;48.510;-2.770;2022-08-19T11:08:37;6.82;;;0.50;;
73571;SDS011;61854;48.510;-2.770;2022-08-19T11:11:04;2.45;;;0.50;;
73571;SDS011;61854;48.510;-2.770;2022-08-19T11:13:31;1.45;;;0.43;;
73571;SDS011;61854;48.510;-2.770;2022-08-19T11:15:59;2.65;;;0.35;;
73571;SDS011;61854;48.510;-2.770;2022-08-19T11:18:25;1.73;;;0.30;;
73571;SDS011;61854;48.510;-2.770;2022-08-19T11:20:51;0.95;;;0.40;;
73571;SDS011;61854;48.510;-2.770;2022-08-19T11:23:17;0.65;;;0.30;;
73571;SDS011;61854;48.510;-2.770;2022-08-19T11:25:43;1.17;;;0.50;;
73571;SDS011;61854;48.510;-2.770;2022-08-19T11:28:10;0.98;;;0.50;;
73571;SDS011;61854;48.510;-2.770;2022-08-19T11:30:37;1.80;;;0.80;;
73571;SDS011;61854;48.510;-2.770;2022-08-19T11:33:03;1.30;;;0.70;;
73571;SDS011;61854;48.510;-2.770;2022-08-19T11:35:29;1.65;;;0.70;;
73571;SDS011;61854;48.510;-2.770;2022-08-19T11:37:55;2.92;;;0.60;;
73571;SDS011;61854;48.510;-2.770;2022-08-19T11:40:26;1.10;;;0.70;;
73571;SDS011;61854;48.510;-2.770;2022-08-19T11:42:52;2.40;;;0.70;;
73571;SDS011;61854;48.510;-2.770;2022-08-19T11:45:24;9.88;;;1.20;;
73571;SDS011;61854;48.510;-2.770;2022-08-19T11:47:52;5.35;;;1.00;;
73571;SDS011;61854;48.510;-2.770;2022-08-19T11:50:18;1.95;;;0.60;;
73571;SDS011;61854;48.510;-2.770;2022-08-19T11:52:44;15.00;;;1.10;;
73571;SDS011;61854;48.510;-2.770;2022-08-19T11:55:13;5.45;;;1.13;;
73571;SDS011;61854;48.510;-2.770;2022-08-19T11:57:39;2.95;;;0.80;;
73571;SDS011;61854;48.510;-2.770;2022-08-19T12:00:06;2.83;;;1.00;;
73571;SDS011;61854;48.510;-2.770;2022-08-19T12:02:33;2.05;;;0.98;;
73571;SDS011;61854;48.510;-2.770;2022-08-19T12:04:58;2.38;;;1.10;;
73571;SDS011;61854;48.510;-2.770;2022-08-19T12:07:27;9.77;;;1.50;;
73571;SDS011;61854;48.510;-2.770;2022-08-19T12:09:54;5.50;;;1.60;;
73571;SDS011;61854;48.510;-2.770;2022-08-19T12:12:19;3.38;;;1.27;;
73571;SDS011;61854;48.510;-2.770;2022-08-19T12:14:46;4.00;;;1.23;;
73571;SDS011;61854;48.510;-2.770;2022-08-19T12:17:12;6.78;;;1.42;;
73571;SDS011;61854;48.510;-2.770;2022-08-19T12:19:38;4.68;;;1.40;;
73571;SDS011;61854;48.510;-2.770;2022-08-19T12:22:04;4.20;;;1.40;;
73571;SDS011;61854;48.510;-2.770;2022-08-19T12:24:31;5.15;;;1.30;;
73571;SDS011;61854;48.510;-2.770;2022-08-19T12:26:57;6.93;;;1.35;;
73571;SDS011;61854;48.510;-2.770;2022-08-19T12:29:26;6.18;;;1.27;;
73571;SDS011;61854;48.510;-2.770;2022-08-19T12:31:53;4.15;;;1.08;;
73571;SDS011;61854;48.510;-2.770;2022-08-19T12:34:25;4.78;;;1.08;;
73571;SDS011;61854;48.510;-2.770;2022-08-19T12:36:51;4.47;;;1.10;;
73571;SDS011;61854;48.510;-2.770;2022-08-19T12:39:17;3.60;;;1.02;;
73571;SDS011;61854;48.510;-2.770;2022-08-19T12:41:42;7.57;;;1.23;;
73571;SDS011;61854;48.510;-2.770;2022-08-19T12:44:08;5.50;;;1.20;;
73571;SDS011;61854;48.510;-2.770;2022-08-19T12:46:33;9.15;;;1.83;;
73571;SDS011;61854;48.510;-2.770;2022-08-19T12:48:59;7.13;;;1.38;;
73571;SDS011;61854;48.510;-2.770;2022-08-19T12:51:25;8.82;;;1.35;;
73571;SDS011;61854;48.510;-2.770;2022-08-19T12:53:51;7.03;;;1.73;;
73571;SDS011;61854;48.510;-2.770;2022-08-19T12:56:17;6.72;;;1.20;;
73571;SDS011;61854;48.510;-2.770;2022-08-19T12:58:43;6.97;;;1.42;;
73571;SDS011;61854;48.510;-2.770;2022-08-19T13:01:13;10.15;;;1.90;;
73571;SDS011;61854;48.510;-2.770;2022-08-19T13:03:41;8.25;;;1.67;;
73571;SDS011;61854;48.510;-2.770;2022-08-19T13:06:08;9.13;;;1.60;;
73571;SDS011;61854;48.510;-2.770;2022-08-19T13:08:34;9.43;;;1.60;;
73571;SDS011;61854;48.510;-2.770;2022-08-19T13:11:16;12.27;;;1.30;;
73571;SDS011;61854;48.510;-2.770;2022-08-19T13:13:45;10.95;;;1.80;;
73571;SDS011;61854;48.510;-2.770;2022-08-19T13:16:12;9.10;;;2.33;;
73571;SDS011;61854;48.510;-2.770;2022-08-19T13:18:39;10.75;;;1.67;;
73571;SDS011;61854;48.510;-2.770;2022-08-19T13:21:07;9.20;;;1.90;;
73571;SDS011;61854;48.510;-2.770;2022-08-19T13:23:34;5.85;;;1.52;;
73571;SDS011;61854;48.510;-2.770;2022-08-19T13:26:04;14.10;;;1.75;;
73571;SDS011;61854;48.510;-2.770;2022-08-19T13:28:31;8.68;;;1.85;;
73571;SDS011;61854;48.510;-2.770;2022-08-19T13:31:17;7.85;;;1.63;;
73571;SDS011;61854;48.510;-2.770;2022-08-19T13:34:03;9.98;;;1.40;;
73571;SDS011;61854;48.510;-2.770;2022-08-19T13:36:31;8.82;;;1.55;;
73571;SDS011;61854;48.510;-2.770;2022-08-19T13:38:57;13.05;;;1.88;;
73571;SDS011;61854;48.510;-2.770;2022-08-19T13:41:23;10.63;;;2.05;;
73571;SDS011;61854;48.510;-2.770;2022-08-19T13:43:50;10.73;;;1.80;;
73571;SDS011;61854;48.510;-2.770;2022-08-19T13:46:15;11.40;;;1.70;;
73571;SDS011;61854;48.510;-2.770;2022-08-19T13:48:41;10.93;;;1.70;;
73571;SDS011;61854;48.510;-2.770;2022-08-19T13:51:08;10.57;;;2.05;;
73571;SDS011;61854;48.510;-2.770;2022-08-19T13:56:07;9.73;;;1.60;;
73571;SDS011;61854;48.510;-2.770;2022-08-19T13:58:35;8.00;;;1.73;;
73571;SDS011;61854;48.510;-2.770;2022-08-19T14:01:01;8.23;;;1.65;;
73571;SDS011;61854;48.510;-2.770;2022-08-19T14:03:26;10.23;;;1.80;;
73571;SDS011;61854;48.510;-2.770;2022-08-19T14:05:52;9.05;;;1.67;;
73571;SDS011;61854;48.510;-2.770;2022-08-19T14:08:18;10.65;;;1.98;;
73571;SDS011;61854;48.510;-2.770;2022-08-19T14:10:44;8.82;;;1.80;;
73571;SDS011;61854;48.510;-2.770;2022-08-19T14:13:12;11.07;;;1.95;;
73571;SDS011;61854;48.510;-2.770;2022-08-19T14:15:40;8.32;;;1.75;;
73571;SDS011;61854;48.510;-2.770;2022-08-19T14:18:06;6.72;;;1.50;;
73571;SDS011;61854;48.510;-2.770;2022-08-19T14:20:35;6.43;;;1.42;;
73571;SDS011;61854;48.510;-2.770;2022-08-19T14:23:00;10.70;;;2.20;;
73571;SDS011;61854;48.510;-2.770;2022-08-19T14:25:27;12.70;;;2.05;;
73571;SDS011;61854;48.510;-2.770;2022-08-19T14:27:54;10.00;;;1.90;;
73571;SDS011;61854;48.510;-2.770;2022-08-19T14:30:25;6.78;;;1.60;;
73571;SDS011;61854;48.510;-2.770;2022-08-19T14:32:53;9.52;;;1.60;;
73571;SDS011;61854;48.510;-2.770;2022-08-19T14:35:20;7.90;;;1.58;;
73571;SDS011;61854;48.510;-2.770;2022-08-19T14:37:47;8.38;;;1.88;;
73571;SDS011;61854;48.510;-2.770;2022-08-19T14:40:14;7.05;;;1.50;;
73571;SDS011;61854;48.510;-2.770;2022-08-19T14:42:46;7.70;;;1.50;;
73571;SDS011;61854;48.510;-2.770;2022-08-19T14:45:13;8.57;;;1.95;;
73571;SDS011;61854;48.510;-2.770;2022-08-19T14:47:39;6.20;;;1.60;;
73571;SDS011;61854;48.510;-2.770;2022-08-19T14:50:08;7.78;;;1.75;;
73571;SDS011;61854;48.510;-2.770;2022-08-19T14:52:36;5.78;;;1.38;;